createdAt,value
2018-09-24T00:00:27.406Z,1.60
2018-09-24T00:02:55.472Z,1.00
2018-09-24T00:05:23.555Z,1.75
2018-09-24T00:07:51.616Z,3.08
2018-09-24T00:10:19.708Z,0.98
2018-09-24T00:12:47.755Z,1.10
2018-09-24T00:15:15.800Z,3.12
2018-09-24T00:17:43.863Z,1.10
2018-09-24T00:20:11.905Z,1.30
2018-09-24T00:22:39.957Z,1.17
2018-09-24T00:25:08.040Z,3.20
2018-09-24T00:27:36.106Z,0.80
2018-09-24T00:30:04.157Z,0.90
2018-09-24T00:32:32.212Z,1.00
2018-09-24T00:35:00.276Z,1.05
2018-09-24T00:37:28.339Z,0.80
2018-09-24T00:39:56.390Z,0.80
2018-09-24T00:42:24.457Z,0.80
2018-09-24T00:44:52.512Z,1.55
2018-09-24T00:47:20.684Z,0.80
2018-09-24T00:49:48.732Z,2.20
2018-09-24T00:52:16.791Z,1.20
2018-09-24T00:54:44.842Z,0.80
2018-09-24T00:57:12.893Z,0.90
2018-09-24T00:59:40.952Z,0.80
2018-09-24T01:02:09.007Z,0.90
2018-09-24T01:04:37.044Z,1.37
2018-09-24T01:07:05.135Z,0.90
2018-09-24T01:09:33.192Z,0.70
2018-09-24T01:12:01.248Z,1.10
2018-09-24T01:14:29.300Z,1.10
2018-09-24T01:16:57.366Z,0.80
2018-09-24T01:19:25.432Z,0.90
2018-09-24T01:21:53.493Z,1.12
2018-09-24T01:24:21.548Z,1.17
2018-09-24T01:26:49.600Z,3.25
2018-09-24T01:29:17.704Z,1.00
2018-09-24T01:31:45.788Z,0.80
2018-09-24T01:34:13.899Z,0.80
2018-09-24T01:36:41.979Z,1.47
2018-09-24T01:39:10.060Z,1.00
2018-09-24T01:41:38.124Z,2.00
2018-09-24T01:44:06.215Z,0.90
2018-09-24T01:46:34.292Z,1.10
2018-09-24T01:49:02.337Z,1.27
2018-09-24T01:51:36.517Z,1.85
2018-09-24T01:54:05.306Z,1.00
2018-09-24T01:56:33.400Z,0.80
2018-09-24T01:59:01.443Z,1.50
2018-09-24T02:01:29.523Z,0.93
2018-09-24T02:03:57.595Z,3.22
2018-09-24T02:06:25.648Z,1.00
2018-09-24T02:08:53.727Z,0.93
2018-09-24T02:11:21.820Z,1.15
2018-09-24T02:13:52.751Z,1.55
2018-09-24T02:16:21.210Z,1.10
2018-09-24T02:18:49.614Z,0.80
2018-09-24T02:21:17.963Z,1.37
2018-09-24T02:23:46.030Z,1.67
2018-09-24T02:26:14.114Z,1.85
2018-09-24T02:28:42.176Z,1.75
2018-09-24T02:31:10.227Z,1.77
2018-09-24T02:33:38.304Z,1.30
2018-09-24T02:36:06.352Z,2.60
2018-09-24T02:38:37.472Z,0.80
2018-09-24T02:41:05.528Z,1.47
2018-09-24T02:43:33.573Z,0.80
2018-09-24T02:46:01.636Z,1.85
2018-09-24T02:48:29.680Z,1.32
2018-09-24T02:50:57.752Z,0.90
2018-09-24T02:53:25.869Z,1.55
2018-09-24T02:55:53.920Z,1.87
2018-09-24T02:58:22.292Z,1.25
2018-09-24T03:00:50.553Z,1.02
2018-09-24T03:03:18.612Z,1.40
2018-09-24T03:05:46.668Z,1.72
2018-09-24T03:08:15.086Z,2.72
2018-09-24T03:10:43.444Z,1.20
2018-09-24T03:13:11.504Z,1.92
2018-09-24T03:15:41.034Z,1.60
2018-09-24T03:18:09.724Z,2.65
2018-09-24T03:20:39.896Z,1.75
2018-09-24T03:23:08.315Z,1.45
2018-09-24T03:25:36.453Z,1.62
2018-09-24T03:28:04.668Z,2.45
2018-09-24T03:30:38.656Z,1.00
2018-09-24T03:33:06.716Z,1.00
2018-09-24T03:35:35.025Z,1.52
2018-09-24T03:38:03.125Z,1.25
2018-09-24T03:40:31.548Z,0.80
2018-09-24T03:43:00.009Z,1.30
2018-09-24T03:45:28.920Z,1.67
2018-09-24T03:47:57.040Z,0.90
2018-09-24T03:50:25.075Z,0.90
2018-09-24T03:52:53.120Z,1.12
2018-09-24T03:55:21.209Z,1.70
2018-09-24T03:57:49.249Z,1.32
2018-09-24T04:00:17.313Z,1.10
2018-09-24T04:02:45.390Z,1.00
2018-09-24T04:05:18.893Z,1.55
2018-09-24T04:07:52.276Z,3.75
2018-09-24T04:10:25.909Z,1.52
2018-09-24T04:12:59.308Z,0.80
2018-09-24T04:15:32.688Z,2.75
2018-09-24T04:18:06.117Z,1.52
2018-09-24T04:20:39.604Z,1.65
2018-09-24T04:23:13.176Z,1.35
2018-09-24T04:25:46.772Z,2.10
2018-09-24T04:28:20.262Z,1.10
2018-09-24T04:30:53.864Z,1.10
2018-09-24T04:33:27.382Z,3.20
2018-09-24T04:36:00.960Z,3.87
2018-09-24T04:38:34.332Z,1.60
2018-09-24T04:41:07.773Z,1.00
2018-09-24T04:43:41.189Z,2.37
2018-09-24T04:46:14.613Z,1.60
2018-09-24T04:48:48.005Z,1.37
2018-09-24T04:51:21.415Z,1.87
2018-09-24T04:53:54.949Z,1.10
2018-09-24T04:56:28.505Z,1.87
2018-09-24T04:59:01.858Z,1.20
2018-09-24T05:01:35.227Z,1.75
2018-09-24T05:04:08.788Z,2.20
2018-09-24T05:06:42.188Z,1.80
2018-09-24T05:09:15.564Z,1.87
2018-09-24T05:11:48.949Z,2.60
2018-09-24T05:14:22.328Z,1.72
2018-09-24T05:16:55.776Z,1.20
2018-09-24T05:19:29.328Z,3.15
2018-09-24T05:22:02.852Z,2.37
2018-09-24T05:24:36.237Z,1.10
2018-09-24T05:27:09.742Z,1.17
2018-09-24T05:29:43.146Z,1.85
2018-09-24T05:32:16.549Z,1.40
2018-09-24T05:34:49.952Z,1.72
2018-09-24T05:37:23.351Z,0.80
2018-09-24T05:39:56.857Z,1.37
2018-09-24T05:42:30.336Z,1.65
2018-09-24T05:45:03.843Z,1.10
2018-09-24T05:47:37.240Z,2.52
2018-09-24T05:50:10.668Z,1.00
2018-09-24T05:52:44.125Z,1.17
2018-09-24T05:55:17.596Z,1.00
2018-09-24T05:57:51.050Z,1.22
2018-09-24T06:00:24.640Z,1.55
2018-09-24T06:02:58.225Z,1.80
2018-09-24T06:05:31.657Z,2.25
2018-09-24T06:08:04.984Z,1.20
2018-09-24T06:10:38.344Z,1.82
2018-09-24T06:13:11.833Z,1.22
2018-09-24T06:15:45.249Z,1.40
2018-09-24T06:18:18.670Z,0.80
2018-09-24T06:20:52.054Z,1.55
2018-09-24T06:23:25.535Z,1.02
2018-09-24T06:25:58.956Z,1.05
2018-09-24T06:28:32.566Z,1.47
2018-09-24T06:31:05.899Z,0.90
2018-09-24T06:33:39.236Z,1.00
2018-09-24T06:36:12.620Z,1.15
2018-09-24T06:38:45.991Z,1.77
2018-09-24T06:41:19.421Z,1.15
2018-09-24T06:43:52.953Z,1.55
2018-09-24T06:46:26.488Z,0.80
2018-09-24T06:48:59.960Z,1.20
2018-09-24T06:51:33.412Z,1.87
2018-09-24T06:54:06.808Z,1.12
2018-09-24T06:56:40.316Z,1.55
2018-09-24T06:59:13.856Z,1.20
2018-09-24T07:01:47.196Z,1.60
2018-09-24T07:04:20.569Z,1.87
2018-09-24T07:06:54.003Z,1.00
2018-09-24T07:09:27.381Z,1.10
2018-09-24T07:12:00.864Z,0.90
2018-09-24T07:14:34.408Z,1.12
2018-09-24T07:17:08.030Z,1.07
2018-09-24T07:19:41.449Z,1.45
2018-09-24T07:22:14.830Z,2.08
2018-09-24T07:24:48.274Z,1.10
2018-09-24T07:27:21.656Z,1.75
2018-09-24T07:29:55.052Z,1.65
2018-09-24T07:32:28.621Z,1.70
2018-09-24T07:35:02.222Z,3.85
2018-09-24T07:37:35.640Z,6.00
2018-09-24T07:40:09.044Z,2.60
2018-09-24T07:42:42.443Z,2.55
2018-09-24T07:45:15.800Z,3.17
2018-09-24T07:47:49.252Z,3.72
2018-09-24T07:50:22.856Z,2.80
2018-09-24T07:52:56.416Z,3.40
2018-09-24T07:55:30.120Z,2.90
2018-09-24T07:58:03.444Z,4.12
2018-09-24T08:00:36.812Z,4.35
2018-09-24T08:03:10.148Z,4.17
2018-09-24T08:05:43.676Z,6.35
2018-09-24T08:08:17.228Z,4.75
2018-09-24T08:10:50.712Z,6.75
2018-09-24T08:13:24.332Z,6.42
2018-09-24T08:15:57.837Z,9.90
2018-09-24T08:18:31.360Z,4.37
2018-09-24T08:21:04.878Z,4.50
2018-09-24T08:23:38.173Z,5.40
2018-09-24T08:26:11.653Z,6.65
2018-09-24T08:28:45.054Z,4.00
2018-09-24T08:31:18.485Z,6.87
2018-09-24T08:33:51.864Z,5.22
2018-09-24T08:36:25.415Z,5.65
2018-09-24T08:38:58.894Z,2.10
2018-09-24T08:41:32.396Z,2.45
2018-09-24T08:44:06.052Z,3.90
2018-09-24T08:46:39.599Z,2.22
2018-09-24T08:49:13.187Z,1.87
2018-09-24T08:51:46.590Z,3.55
2018-09-24T08:54:20.013Z,3.00
2018-09-24T08:56:53.414Z,2.92
2018-09-24T08:59:26.836Z,3.10
2018-09-24T09:02:00.323Z,2.45
2018-09-24T09:04:33.872Z,3.15
2018-09-24T09:07:07.399Z,2.95
2018-09-24T09:09:40.885Z,2.60
2018-09-24T09:12:14.425Z,1.85
2018-09-24T09:14:47.808Z,3.80
2018-09-24T09:17:21.336Z,2.37
2018-09-24T09:19:54.737Z,2.42
2018-09-24T09:22:28.207Z,1.72
2018-09-24T09:25:01.620Z,2.08
2018-09-24T09:27:35.092Z,2.62
2018-09-24T09:30:08.633Z,2.08
2018-09-24T09:32:42.136Z,1.72
2018-09-24T09:35:15.716Z,1.55
2018-09-24T09:37:48.982Z,1.47
2018-09-24T09:40:22.396Z,1.98
2018-09-24T09:42:55.820Z,3.35
2018-09-24T09:45:29.239Z,1.92
2018-09-24T09:48:02.676Z,2.20
2018-09-24T09:50:36.205Z,1.27
2018-09-24T09:53:09.657Z,1.42
2018-09-24T09:55:43.158Z,1.35
2018-09-24T09:58:16.704Z,1.32
2018-09-24T10:00:50.036Z,2.65
2018-09-24T10:03:23.569Z,1.85
2018-09-24T10:05:57.044Z,2.60
2018-09-24T10:08:30.580Z,2.00
2018-09-24T10:11:04.149Z,2.12
2018-09-24T10:13:37.715Z,0.90
2018-09-24T10:16:11.262Z,1.10
2018-09-24T10:18:44.629Z,1.35
2018-09-24T10:21:25.194Z,1.75
2018-09-24T10:23:58.587Z,1.60
2018-09-24T10:26:31.944Z,1.30
2018-09-24T10:29:05.371Z,1.75
2018-09-24T10:31:38.734Z,1.37
2018-09-24T10:34:12.204Z,1.37
2018-09-24T10:36:46.012Z,1.90
2018-09-24T10:39:19.452Z,1.02
2018-09-24T10:41:52.988Z,1.00
2018-09-24T10:44:26.533Z,1.12
2018-09-24T10:46:59.939Z,1.00
2018-09-24T10:49:33.373Z,0.98
2018-09-24T10:52:06.848Z,1.42
2018-09-24T10:54:40.230Z,1.00
2018-09-24T10:57:13.612Z,1.42
2018-09-24T10:59:47.212Z,1.60
2018-09-24T11:02:20.776Z,1.10
2018-09-24T11:04:54.332Z,3.45
2018-09-24T11:07:27.816Z,1.72
2018-09-24T11:10:01.370Z,3.00
2018-09-24T11:12:34.755Z,1.85
2018-09-24T11:15:08.141Z,2.27
2018-09-24T11:17:41.860Z,2.22
2018-09-24T11:20:14.805Z,2.17
2018-09-24T11:22:48.209Z,1.87
2018-09-24T11:25:21.741Z,2.58
2018-09-24T11:27:55.268Z,2.52
2018-09-24T11:30:28.788Z,1.35
2018-09-24T11:33:02.325Z,1.80
2018-09-24T11:35:35.953Z,2.00
2018-09-24T11:38:09.357Z,3.87
2018-09-24T11:40:42.919Z,3.35
2018-09-24T11:43:16.474Z,3.12
2018-09-24T11:45:49.886Z,3.65
2018-09-24T11:48:23.378Z,4.05
2018-09-24T11:50:56.828Z,2.85
2018-09-24T11:53:30.208Z,3.35
2018-09-24T11:56:03.812Z,4.15
2018-09-24T11:58:37.372Z,3.62
2018-09-24T12:01:10.748Z,3.77
2018-09-24T12:03:44.173Z,2.80
2018-09-24T12:06:17.681Z,3.92
2018-09-24T12:08:51.123Z,5.22
2018-09-24T12:11:24.640Z,3.45
2018-09-24T12:13:58.061Z,2.00
2018-09-24T12:16:31.440Z,3.25
2018-09-24T12:19:04.912Z,2.02
2018-09-24T12:21:38.508Z,2.72
2018-09-24T12:24:12.415Z,2.80
2018-09-24T12:26:45.757Z,5.33
2018-09-24T12:29:19.203Z,2.70
2018-09-24T12:31:52.765Z,3.22
2018-09-24T12:34:26.261Z,3.52
2018-09-24T12:36:59.589Z,4.33
2018-09-24T12:39:32.937Z,4.20
2018-09-24T12:42:06.455Z,3.05
2018-09-24T12:44:39.924Z,4.60
2018-09-24T12:47:13.435Z,2.33
2018-09-24T12:49:46.800Z,2.45
2018-09-24T12:52:20.335Z,1.90
2018-09-24T12:54:53.937Z,2.05
2018-09-24T12:57:27.445Z,2.12
2018-09-24T13:00:00.972Z,1.02
2018-09-24T13:02:34.368Z,2.10
2018-09-24T13:05:07.796Z,1.95
2018-09-24T13:07:41.342Z,2.47
2018-09-24T13:10:14.756Z,2.83
2018-09-24T13:12:48.141Z,3.30
2018-09-24T13:15:21.555Z,3.77
2018-09-24T13:17:54.968Z,2.27
2018-09-24T13:20:28.368Z,2.33
2018-09-24T13:23:01.725Z,3.33
2018-09-24T13:25:35.196Z,3.58
2018-09-24T13:28:08.675Z,3.22
2018-09-24T13:30:42.181Z,2.90
2018-09-24T13:33:15.683Z,2.92
2018-09-24T13:35:49.204Z,3.05
2018-09-24T13:38:22.569Z,5.35
2018-09-24T13:40:56.163Z,4.62
2018-09-24T13:43:29.574Z,3.08
2018-09-24T13:46:03.044Z,3.75
2018-09-24T13:48:36.428Z,4.72
2018-09-24T13:51:09.944Z,4.03
2018-09-24T13:53:43.338Z,4.10
2018-09-24T13:56:16.743Z,5.80
2018-09-24T13:58:50.222Z,1.92
2018-09-24T14:01:23.744Z,2.55
2018-09-24T14:03:57.172Z,3.37
2018-09-24T14:06:30.698Z,1.77
2018-09-24T14:09:04.072Z,2.02
2018-09-24T14:11:37.475Z,4.15
2018-09-24T14:14:10.980Z,4.28
2018-09-24T14:16:44.515Z,3.67
2018-09-24T14:19:17.840Z,2.87
2018-09-24T14:21:51.187Z,5.78
2018-09-24T14:24:24.768Z,6.00
2018-09-24T14:26:58.293Z,4.15
2018-09-24T14:29:31.792Z,7.72
2018-09-24T14:32:05.305Z,4.35
2018-09-24T14:34:38.733Z,6.17
2018-09-24T14:37:12.374Z,5.00
2018-09-24T14:39:45.773Z,4.60
2018-09-24T14:42:19.113Z,3.47
2018-09-24T14:44:52.604Z,3.02
2018-09-24T14:47:26.129Z,4.33
2018-09-24T14:49:59.652Z,4.15
2018-09-24T14:52:33.187Z,3.35
2018-09-24T14:55:06.603Z,4.03
2018-09-24T14:57:40.028Z,2.77
2018-09-24T15:00:13.493Z,1.90
2018-09-24T15:02:46.992Z,5.30
2018-09-24T15:05:20.522Z,2.40
2018-09-24T15:07:53.926Z,2.85
2018-09-24T15:10:27.272Z,2.47
2018-09-24T15:13:00.601Z,2.85
2018-09-24T15:15:33.909Z,3.92
2018-09-24T15:18:07.469Z,2.70
2018-09-24T15:20:41.040Z,3.12
2018-09-24T15:23:14.468Z,2.05
2018-09-24T15:25:48.000Z,2.35
2018-09-24T15:28:21.453Z,1.77
2018-09-24T15:30:54.856Z,1.90
2018-09-24T15:33:28.401Z,2.60
2018-09-24T15:36:01.912Z,2.08
2018-09-24T15:38:35.320Z,2.50
2018-09-24T15:41:08.793Z,1.67
2018-09-24T15:43:42.292Z,3.10
2018-09-24T15:46:15.804Z,2.45
2018-09-24T15:48:49.144Z,2.60
2018-09-24T15:51:22.547Z,2.33
2018-09-24T15:53:55.981Z,1.77
2018-09-24T15:56:29.560Z,3.08
2018-09-24T15:59:03.084Z,3.37
2018-09-24T16:01:36.499Z,2.33
2018-09-24T16:04:09.993Z,3.02
2018-09-24T16:06:43.558Z,1.98
2018-09-24T16:09:16.896Z,1.50
2018-09-24T16:11:50.481Z,1.30
2018-09-24T16:14:24.057Z,2.52
2018-09-24T16:16:57.412Z,1.60
2018-09-24T16:19:30.928Z,1.67
2018-09-24T16:22:04.289Z,1.20
2018-09-24T16:24:37.615Z,1.10
2018-09-24T16:27:11.253Z,2.90
2018-09-24T16:29:44.759Z,1.87
2018-09-24T16:32:18.312Z,1.57
2018-09-24T16:34:51.925Z,1.20
2018-09-24T16:37:25.578Z,1.75
2018-09-24T16:39:59.156Z,2.02
2018-09-24T16:42:32.729Z,1.20
2018-09-24T16:45:06.356Z,2.22
2018-09-24T16:47:39.893Z,2.20
2018-09-24T16:50:13.503Z,3.40
2018-09-24T16:52:46.953Z,2.50
2018-09-24T16:55:20.521Z,2.17
2018-09-24T16:57:54.083Z,1.80
2018-09-24T17:00:27.511Z,2.00
2018-09-24T17:03:01.092Z,3.80
2018-09-24T17:05:34.581Z,3.40
2018-09-24T17:08:08.070Z,2.02
2018-09-24T17:10:41.547Z,1.50
2018-09-24T17:13:15.077Z,2.35
2018-09-24T17:15:48.485Z,2.70
2018-09-24T17:18:21.888Z,3.92
2018-09-24T17:20:55.437Z,2.00
2018-09-24T17:23:28.983Z,3.10
2018-09-24T17:26:02.588Z,2.30
2018-09-24T17:28:36.237Z,2.52
2018-09-24T17:31:09.671Z,1.37
2018-09-24T17:33:43.233Z,1.92
2018-09-24T17:36:16.693Z,1.95
2018-09-24T17:38:50.214Z,1.80
2018-09-24T17:41:23.780Z,2.72
2018-09-24T17:43:57.389Z,2.80
2018-09-24T17:46:30.954Z,2.75
2018-09-24T17:49:04.303Z,1.75
2018-09-24T17:51:37.745Z,3.58
2018-09-24T17:54:11.248Z,5.97
2018-09-24T17:56:44.580Z,3.27
2018-09-24T17:59:18.060Z,3.35
2018-09-24T18:01:51.583Z,2.05
2018-09-24T18:04:24.967Z,2.90
2018-09-24T18:06:58.567Z,3.15
2018-09-24T18:09:32.048Z,1.92
2018-09-24T18:12:05.497Z,3.45
2018-09-24T18:14:39.025Z,3.70
2018-09-24T18:17:12.372Z,1.75
2018-09-24T18:19:46.043Z,1.75
2018-09-24T18:22:19.460Z,2.12
2018-09-24T18:24:52.896Z,2.35
2018-09-24T18:27:26.782Z,2.40
2018-09-24T18:30:00.304Z,5.20
2018-09-24T18:32:33.708Z,2.55
2018-09-24T18:35:07.234Z,2.77
2018-09-24T18:37:40.880Z,2.98
2018-09-24T18:40:14.408Z,1.72
2018-09-24T18:42:47.772Z,1.35
2018-09-24T18:45:21.313Z,1.70
2018-09-24T18:47:54.737Z,3.35
2018-09-24T18:50:28.180Z,3.30
2018-09-24T18:53:01.584Z,3.37
2018-09-24T18:55:35.122Z,2.35
2018-09-24T18:58:08.695Z,2.17
2018-09-24T19:00:42.060Z,2.98
2018-09-24T19:03:15.524Z,2.17
2018-09-24T19:05:48.852Z,1.90
2018-09-24T19:08:22.359Z,2.25
2018-09-24T19:10:55.868Z,2.85
2018-09-24T19:13:29.465Z,6.08
2018-09-24T19:16:03.068Z,1.75
2018-09-24T19:18:36.551Z,1.95
2018-09-24T19:21:10.060Z,2.17
2018-09-24T19:23:43.607Z,1.60
2018-09-24T19:26:17.171Z,2.55
2018-09-24T19:28:50.692Z,2.20
2018-09-24T19:31:24.073Z,3.20
2018-09-24T19:33:57.493Z,3.30
2018-09-24T19:36:30.887Z,3.08
2018-09-24T19:39:04.325Z,4.62
2018-09-24T19:41:37.823Z,1.85
2018-09-24T19:44:11.704Z,1.82
2018-09-24T19:46:45.237Z,2.17
2018-09-24T19:49:18.700Z,1.40
2018-09-24T19:51:52.263Z,1.22
2018-09-24T19:54:25.652Z,1.47
2018-09-24T19:56:59.152Z,1.45
2018-09-24T19:59:32.780Z,1.10
2018-09-24T20:02:06.279Z,1.80
2018-09-24T20:04:39.785Z,1.40
2018-09-24T20:07:13.317Z,1.30
2018-09-24T20:09:46.772Z,1.30
2018-09-24T20:12:20.084Z,2.20
2018-09-24T20:14:53.605Z,1.72
2018-09-24T20:17:27.036Z,1.45
2018-09-24T20:20:00.413Z,2.00
2018-09-24T20:22:34.018Z,2.55
2018-09-24T20:25:07.367Z,2.45
2018-09-24T20:27:40.987Z,3.75
2018-09-24T20:30:14.506Z,1.90
2018-09-24T20:32:48.100Z,1.98
2018-09-24T20:35:21.570Z,2.75
2018-09-24T20:37:55.056Z,2.10
2018-09-24T20:40:28.475Z,2.72
2018-09-24T20:43:01.816Z,4.25
2018-09-24T20:45:35.244Z,4.40
2018-09-24T20:48:08.901Z,1.37
2018-09-24T20:50:42.321Z,1.98
2018-09-24T20:53:15.893Z,1.00
2018-09-24T20:55:49.315Z,3.25
2018-09-24T20:58:22.745Z,2.12
2018-09-24T21:00:56.348Z,1.37
2018-09-24T21:03:29.852Z,2.80
2018-09-24T21:06:03.204Z,1.47
2018-09-24T21:08:36.678Z,1.40
2018-09-24T21:11:10.034Z,1.77
2018-09-24T21:13:43.384Z,1.82
2018-09-24T21:16:16.924Z,1.17
2018-09-24T21:18:50.420Z,1.07
2018-09-24T21:21:23.880Z,2.45
2018-09-24T21:23:57.293Z,2.08
2018-09-24T21:26:30.604Z,1.42
2018-09-24T21:29:03.978Z,1.05
2018-09-24T21:31:37.484Z,1.30
2018-09-24T21:34:10.987Z,0.85
2018-09-24T21:36:44.488Z,1.45
2018-09-24T21:39:17.984Z,2.15
2018-09-24T21:41:51.568Z,1.27
2018-09-24T21:44:24.992Z,1.47
2018-09-24T21:46:58.454Z,0.90
2018-09-24T21:49:31.981Z,2.47
2018-09-24T21:52:05.356Z,1.00
2018-09-24T21:54:38.863Z,1.00
2018-09-24T21:57:12.413Z,0.80
2018-09-24T21:59:45.904Z,1.10
2018-09-24T22:02:19.244Z,1.52
2018-09-24T22:04:52.776Z,0.90
2018-09-24T22:07:26.249Z,1.25
2018-09-24T22:09:59.851Z,2.55
2018-09-24T22:12:33.237Z,0.98
2018-09-24T22:15:06.601Z,1.37
2018-09-24T22:17:40.108Z,1.22
2018-09-24T22:20:13.633Z,1.05
2018-09-24T22:22:46.993Z,1.07
2018-09-24T22:25:20.493Z,1.15
2018-09-24T22:27:53.798Z,2.62
2018-09-24T22:30:27.171Z,1.55
2018-09-24T22:33:00.547Z,1.90
2018-09-24T22:35:33.977Z,1.77
2018-09-24T22:38:07.489Z,1.70
2018-09-24T22:40:40.881Z,0.98
2018-09-24T22:43:14.270Z,3.10
2018-09-24T22:45:47.792Z,1.82
2018-09-24T22:48:21.145Z,1.52
2018-09-24T22:50:54.644Z,1.25
2018-09-24T22:53:28.151Z,2.35
2018-09-24T22:56:01.630Z,1.50
2018-09-24T22:58:34.956Z,1.20
2018-09-24T23:01:08.356Z,1.87
2018-09-24T23:03:41.712Z,0.78
2018-09-24T23:06:15.132Z,0.90
2018-09-24T23:08:48.544Z,1.05
2018-09-24T23:11:22.144Z,1.98
2018-09-24T23:13:55.536Z,1.20
2018-09-24T23:16:29.048Z,1.82
2018-09-24T23:19:02.404Z,1.00
2018-09-24T23:21:35.913Z,1.70
2018-09-24T23:24:09.416Z,1.12
2018-09-24T23:26:42.985Z,1.00
2018-09-24T23:29:16.392Z,1.02
2018-09-24T23:31:49.792Z,1.00
2018-09-24T23:34:23.308Z,1.20
2018-09-24T23:36:56.829Z,1.55
2018-09-24T23:39:30.404Z,1.35
2018-09-24T23:42:03.911Z,1.00
2018-09-24T23:44:37.216Z,0.90
2018-09-24T23:47:10.935Z,1.77
2018-09-24T23:49:44.496Z,2.98
2018-09-24T23:52:17.892Z,1.17
2018-09-24T23:54:51.243Z,1.00
2018-09-24T23:57:24.672Z,1.75
2018-09-24T23:59:58.092Z,2.17
